sensor_id;sensor_type;location;lat;lon;timestamp;temperature;humidity
2447;DHT22;26430;48.818;9.244;2022-10-01T00:01:13;9.30;99.90
2447;DHT22;26430;48.818;9.244;2022-10-01T00:03:39;9.30;99.90
2447;DHT22;26430;48.818;9.244;2022-10-01T00:06:15;9.30;99.90
2447;DHT22;26430;48.818;9.244;2022-10-01T00:08:43;9.20;99.90
2447;DHT22;26430;48.818;9.244;2022-10-01T00:11:18;9.20;99.90
2447;DHT22;26430;48.818;9.244;2022-10-01T00:13:46;9.20;99.90
2447;DHT22;26430;48.818;9.244;2022-10-01T00:16:13;9.20;99.90
2447;DHT22;26430;48.818;9.244;2022-10-01T00:18:41;9.20;99.90
2447;DHT22;26430;48.818;9.244;2022-10-01T00:21:08;9.20;99.90
2447;DHT22;26430;48.818;9.244;2022-10-01T00:23:35;9.20;99.90
2447;DHT22;26430;48.818;9.244;2022-10-01T00:26:20;9.30;99.90
2447;DHT22;26430;48.818;9.244;2022-10-01T00:28:47;9.30;99.90
2447;DHT22;26430;48.818;9.244;2022-10-01T00:31:14;9.30;99.90
2447;DHT22;26430;48.818;9.244;2022-10-01T00:33:40;9.20;99.90
2447;DHT22;26430;48.818;9.244;2022-10-01T00:36:07;9.30;99.90
2447;DHT22;26430;48.818;9.244;2022-10-01T00:38:34;9.30;99.90
2447;DHT22;26430;48.818;9.244;2022-10-01T00:41:01;9.20;99.90
2447;DHT22;26430;48.818;9.244;2022-10-01T00:43:33;9.20;99.90
2447;DHT22;26430;48.818;9.244;2022-10-01T00:46:08;9.20;99.90
2447;DHT22;26430;48.818;9.244;2022-10-01T00:48:46;9.20;99.90
2447;DHT22;26430;48.818;9.244;2022-10-01T00:51:15;9.10;99.90
2447;DHT22;26430;48.818;9.244;2022-10-01T00:53:40;9.10;99.90
2447;DHT22;26430;48.818;9.244;2022-10-01T00:56:07;9.20;99.90
2447;DHT22;26430;48.818;9.244;2022-10-01T00:58:33;9.20;99.90
2447;DHT22;26430;48.818;9.244;2022-10-01T01:00:58;9.20;99.90
2447;DHT22;26430;48.818;9.244;2022-10-01T01:03:25;9.20;99.90
2447;DHT22;26430;48.818;9.244;2022-10-01T01:05:51;9.10;99.90
2447;DHT22;26430;48.818;9.244;2022-10-01T01:08:17;9.20;99.90
2447;DHT22;26430;48.818;9.244;2022-10-01T01:16:29;9.10;99.90
2447;DHT22;26430;48.818;9.244;2022-10-01T01:19:07;9.10;99.90
2447;DHT22;26430;48.818;9.244;2022-10-01T01:21:43;9.20;99.90
2447;DHT22;26430;48.818;9.244;2022-10-01T01:29:38;9.40;99.90
2447;DHT22;26430;48.818;9.244;2022-10-01T01:32:20;9.30;99.90
2447;DHT22;26430;48.818;9.244;2022-10-01T01:34:50;9.20;99.90
2447;DHT22;26430;48.818;9.244;2022-10-01T01:37:18;9.30;99.90
2447;DHT22;26430;48.818;9.244;2022-10-01T01:39:49;9.30;99.90
2447;DHT22;26430;48.818;9.244;2022-10-01T01:42:23;9.20;99.90
2447;DHT22;26430;48.818;9.244;2022-10-01T01:44:53;9.10;99.90
2447;DHT22;26430;48.818;9.244;2022-10-01T01:47:24;9.10;99.90
2447;DHT22;26430;48.818;9.244;2022-10-01T01:49:55;9.00;99.90
2447;DHT22;26430;48.818;9.244;2022-10-01T01:52:23;9.10;99.90
2447;DHT22;26430;48.818;9.244;2022-10-01T01:54:50;9.20;99.90
2447;DHT22;26430;48.818;9.244;2022-10-01T01:57:17;9.10;99.90
2447;DHT22;26430;48.818;9.244;2022-10-01T01:59:44;9.10;99.90
2447;DHT22;26430;48.818;9.244;2022-10-01T02:02:30;9.10;99.90
2447;DHT22;26430;48.818;9.244;2022-10-01T02:05:02;9.00;99.90
2447;DHT22;26430;48.818;9.244;2022-10-01T02:20:55;9.20;99.90
2447;DHT22;26430;48.818;9.244;2022-10-01T02:23:32;9.20;99.90
2447;DHT22;26430;48.818;9.244;2022-10-01T02:26:02;9.20;99.90
2447;DHT22;26430;48.818;9.244;2022-10-01T02:28:31;9.20;99.90
2447;DHT22;26430;48.818;9.244;2022-10-01T02:31:00;9.20;99.90
2447;DHT22;26430;48.818;9.244;2022-10-01T02:33:30;9.10;99.90
2447;DHT22;26430;48.818;9.244;2022-10-01T02:35:59;9.10;99.90
2447;DHT22;26430;48.818;9.244;2022-10-01T02:38:26;9.20;99.90
2447;DHT22;26430;48.818;9.244;2022-10-01T02:40:54;9.20;99.90
2447;DHT22;26430;48.818;9.244;2022-10-01T02:43:34;9.10;99.90
2447;DHT22;26430;48.818;9.244;2022-10-01T02:46:12;9.10;99.90
2447;DHT22;26430;48.818;9.244;2022-10-01T02:48:40;9.20;99.90
2447;DHT22;26430;48.818;9.244;2022-10-01T02:51:21;9.10;99.90
2447;DHT22;26430;48.818;9.244;2022-10-01T02:53:54;9.10;99.90
2447;DHT22;26430;48.818;9.244;2022-10-01T02:56:22;9.10;99.90
2447;DHT22;26430;48.818;9.244;2022-10-01T02:59:07;9.20;99.90
2447;DHT22;26430;48.818;9.244;2022-10-01T03:01:34;9.20;99.90
2447;DHT22;26430;48.818;9.244;2022-10-01T03:04:01;9.20;99.90
2447;DHT22;26430;48.818;9.244;2022-10-01T03:06:27;9.20;99.90
2447;DHT22;26430;48.818;9.244;2022-10-01T03:08:52;9.40;99.90
2447;DHT22;26430;48.818;9.244;2022-10-01T03:11:18;9.30;99.90
2447;DHT22;26430;48.818;9.244;2022-10-01T03:13:45;9.30;99.90
2447;DHT22;26430;48.818;9.244;2022-10-01T03:16:11;9.40;99.90
2447;DHT22;26430;48.818;9.244;2022-10-01T03:18:37;9.40;99.90
2447;DHT22;26430;48.818;9.244;2022-10-01T03:21:02;9.50;99.90
2447;DHT22;26430;48.818;9.244;2022-10-01T03:23:28;9.60;99.90
2447;DHT22;26430;48.818;9.244;2022-10-01T03:25:53;9.60;99.90
2447;DHT22;26430;48.818;9.244;2022-10-01T03:28:19;9.50;99.90
2447;DHT22;26430;48.818;9.244;2022-10-01T03:30:45;9.50;99.90
2447;DHT22;26430;48.818;9.244;2022-10-01T03:33:10;9.40;99.90
2447;DHT22;26430;48.818;9.244;2022-10-01T03:35:36;9.40;99.90
2447;DHT22;26430;48.818;9.244;2022-10-01T03:38:02;9.30;99.90
2447;DHT22;26430;48.818;9.244;2022-10-01T03:40:27;9.30;99.90
2447;DHT22;26430;48.818;9.244;2022-10-01T03:42:53;9.30;99.90
2447;DHT22;26430;48.818;9.244;2022-10-01T03:45:19;9.30;99.90
2447;DHT22;26430;48.818;9.244;2022-10-01T03:47:51;9.30;99.90
2447;DHT22;26430;48.818;9.244;2022-10-01T03:50:17;9.30;99.90
2447;DHT22;26430;48.818;9.244;2022-10-01T03:52:43;9.30;99.90
2447;DHT22;26430;48.818;9.244;2022-10-01T03:55:10;9.20;99.90
2447;DHT22;26430;48.818;9.244;2022-10-01T03:57:36;9.10;99.90
2447;DHT22;26430;48.818;9.244;2022-10-01T04:00:03;9.20;99.90
2447;DHT22;26430;48.818;9.244;2022-10-01T04:02:29;9.10;99.90
2447;DHT22;26430;48.818;9.244;2022-10-01T04:04:55;9.10;99.90
2447;DHT22;26430;48.818;9.244;2022-10-01T04:07:20;9.10;99.90
2447;DHT22;26430;48.818;9.244;2022-10-01T04:09:46;9.10;99.90
2447;DHT22;26430;48.818;9.244;2022-10-01T04:12:12;9.10;99.90
2447;DHT22;26430;48.818;9.244;2022-10-01T04:14:37;9.10;99.90
2447;DHT22;26430;48.818;9.244;2022-10-01T04:17:03;9.20;99.90
2447;DHT22;26430;48.818;9.244;2022-10-01T04:19:28;9.20;99.90
2447;DHT22;26430;48.818;9.244;2022-10-01T04:21:54;9.20;99.90
2447;DHT22;26430;48.818;9.244;2022-10-01T04:24:20;9.20;99.90
2447;DHT22;26430;48.818;9.244;2022-10-01T04:26:45;9.30;99.90
2447;DHT22;26430;48.818;9.244;2022-10-01T04:29:11;9.30;99.90
2447;DHT22;26430;48.818;9.244;2022-10-01T04:31:37;9.30;99.90
2447;DHT22;26430;48.818;9.244;2022-10-01T04:34:02;9.30;99.90
2447;DHT22;26430;48.818;9.244;2022-10-01T04:36:29;9.40;99.90
2447;DHT22;26430;48.818;9.244;2022-10-01T04:38:55;9.40;99.90
2447;DHT22;26430;48.818;9.244;2022-10-01T04:41:21;9.40;99.90
2447;DHT22;26430;48.818;9.244;2022-10-01T04:43:47;9.40;99.90
2447;DHT22;26430;48.818;9.244;2022-10-01T04:46:13;9.40;99.90
2447;DHT22;26430;48.818;9.244;2022-10-01T04:48:39;9.50;99.90
2447;DHT22;26430;48.818;9.244;2022-10-01T04:51:04;9.50;99.90
2447;DHT22;26430;48.818;9.244;2022-10-01T04:53:30;9.50;99.90
2447;DHT22;26430;48.818;9.244;2022-10-01T04:55:56;9.50;99.90
2447;DHT22;26430;48.818;9.244;2022-10-01T04:58:21;9.50;99.90
2447;DHT22;26430;48.818;9.244;2022-10-01T05:00:47;9.50;99.90
2447;DHT22;26430;48.818;9.244;2022-10-01T05:03:14;9.50;99.90
2447;DHT22;26430;48.818;9.244;2022-10-01T05:05:39;9.50;99.90
2447;DHT22;26430;48.818;9.244;2022-10-01T05:08:05;9.60;99.90
2447;DHT22;26430;48.818;9.244;2022-10-01T05:10:31;9.70;99.90
2447;DHT22;26430;48.818;9.244;2022-10-01T05:12:57;9.70;99.90
2447;DHT22;26430;48.818;9.244;2022-10-01T05:15:26;9.70;99.90
2447;DHT22;26430;48.818;9.244;2022-10-01T05:17:52;9.80;99.90
2447;DHT22;26430;48.818;9.244;2022-10-01T05:20:21;9.80;99.90
2447;DHT22;26430;48.818;9.244;2022-10-01T05:22:47;9.90;99.90
2447;DHT22;26430;48.818;9.244;2022-10-01T05:25:14;9.80;99.90
2447;DHT22;26430;48.818;9.244;2022-10-01T05:27:40;9.80;99.90
2447;DHT22;26430;48.818;9.244;2022-10-01T05:30:08;9.80;99.90
2447;DHT22;26430;48.818;9.244;2022-10-01T05:32:35;9.70;99.90
2447;DHT22;26430;48.818;9.244;2022-10-01T05:35:01;9.80;99.90
2447;DHT22;26430;48.818;9.244;2022-10-01T05:37:27;9.90;99.90
2447;DHT22;26430;48.818;9.244;2022-10-01T05:39:52;9.80;99.90
2447;DHT22;26430;48.818;9.244;2022-10-01T05:42:18;9.80;99.90
2447;DHT22;26430;48.818;9.244;2022-10-01T05:44:44;9.80;99.90
2447;DHT22;26430;48.818;9.244;2022-10-01T05:47:15;9.90;99.90
2447;DHT22;26430;48.818;9.244;2022-10-01T05:49:41;9.90;99.90
2447;DHT22;26430;48.818;9.244;2022-10-01T05:52:12;9.90;99.90
2447;DHT22;26430;48.818;9.244;2022-10-01T05:54:38;9.90;99.90
2447;DHT22;26430;48.818;9.244;2022-10-01T05:57:05;10.00;99.90
2447;DHT22;26430;48.818;9.244;2022-10-01T05:59:30;10.00;99.90
2447;DHT22;26430;48.818;9.244;2022-10-01T06:01:56;10.00;99.90
2447;DHT22;26430;48.818;9.244;2022-10-01T06:04:22;10.00;99.90
2447;DHT22;26430;48.818;9.244;2022-10-01T06:06:47;10.00;99.90
2447;DHT22;26430;48.818;9.244;2022-10-01T06:09:13;10.00;99.90
2447;DHT22;26430;48.818;9.244;2022-10-01T06:11:39;10.00;99.90
2447;DHT22;26430;48.818;9.244;2022-10-01T06:14:06;9.90;99.90
2447;DHT22;26430;48.818;9.244;2022-10-01T06:16:32;9.90;99.90
2447;DHT22;26430;48.818;9.244;2022-10-01T06:18:57;9.90;99.90
2447;DHT22;26430;48.818;9.244;2022-10-01T06:21:24;9.90;99.90
2447;DHT22;26430;48.818;9.244;2022-10-01T06:23:50;9.80;99.90
2447;DHT22;26430;48.818;9.244;2022-10-01T06:26:17;9.80;99.90
2447;DHT22;26430;48.818;9.244;2022-10-01T06:28:42;9.80;99.90
2447;DHT22;26430;48.818;9.244;2022-10-01T06:31:08;9.80;99.90
2447;DHT22;26430;48.818;9.244;2022-10-01T06:33:34;9.80;99.90
2447;DHT22;26430;48.818;9.244;2022-10-01T06:36:00;9.90;99.90
2447;DHT22;26430;48.818;9.244;2022-10-01T06:38:27;9.90;99.90
2447;DHT22;26430;48.818;9.244;2022-10-01T06:40:54;9.80;99.90
2447;DHT22;26430;48.818;9.244;2022-10-01T06:43:20;9.90;99.90
2447;DHT22;26430;48.818;9.244;2022-10-01T06:45:46;9.90;99.90
2447;DHT22;26430;48.818;9.244;2022-10-01T06:48:13;9.90;99.90
2447;DHT22;26430;48.818;9.244;2022-10-01T06:50:41;10.00;99.90
2447;DHT22;26430;48.818;9.244;2022-10-01T06:53:07;10.00;99.90
2447;DHT22;26430;48.818;9.244;2022-10-01T06:55:34;10.00;99.90
2447;DHT22;26430;48.818;9.244;2022-10-01T06:58:03;10.00;99.90
2447;DHT22;26430;48.818;9.244;2022-10-01T07:00:32;10.00;99.90
2447;DHT22;26430;48.818;9.244;2022-10-01T07:03:00;10.00;99.90
2447;DHT22;26430;48.818;9.244;2022-10-01T07:05:26;10.00;99.90
2447;DHT22;26430;48.818;9.244;2022-10-01T07:07:52;10.00;99.90
2447;DHT22;26430;48.818;9.244;2022-10-01T07:10:20;9.90;99.90
2447;DHT22;26430;48.818;9.244;2022-10-01T07:12:47;10.00;99.90
2447;DHT22;26430;48.818;9.244;2022-10-01T07:15:14;9.90;99.90
2447;DHT22;26430;48.818;9.244;2022-10-01T07:17:48;9.80;99.90
2447;DHT22;26430;48.818;9.244;2022-10-01T07:20:15;9.80;99.90
2447;DHT22;26430;48.818;9.244;2022-10-01T07:22:45;9.70;99.90
2447;DHT22;26430;48.818;9.244;2022-10-01T07:25:13;9.70;99.90
2447;DHT22;26430;48.818;9.244;2022-10-01T07:27:39;9.70;99.90
2447;DHT22;26430;48.818;9.244;2022-10-01T07:30:06;9.70;99.90
2447;DHT22;26430;48.818;9.244;2022-10-01T07:32:32;9.70;99.90
2447;DHT22;26430;48.818;9.244;2022-10-01T07:35:00;9.90;99.90
2447;DHT22;26430;48.818;9.244;2022-10-01T07:37:26;9.90;99.90
2447;DHT22;26430;48.818;9.244;2022-10-01T07:39:52;9.90;99.90
2447;DHT22;26430;48.818;9.244;2022-10-01T07:42:17;10.00;99.90
2447;DHT22;26430;48.818;9.244;2022-10-01T07:44:43;10.00;99.90
2447;DHT22;26430;48.818;9.244;2022-10-01T07:47:10;9.90;99.90
2447;DHT22;26430;48.818;9.244;2022-10-01T07:49:36;10.00;99.90
2447;DHT22;26430;48.818;9.244;2022-10-01T07:52:02;10.00;99.90
2447;DHT22;26430;48.818;9.244;2022-10-01T07:54:27;10.00;99.90
2447;DHT22;26430;48.818;9.244;2022-10-01T07:56:53;9.90;99.90
2447;DHT22;26430;48.818;9.244;2022-10-01T07:59:23;10.00;99.90
2447;DHT22;26430;48.818;9.244;2022-10-01T08:01:52;10.10;99.90
2447;DHT22;26430;48.818;9.244;2022-10-01T08:04:21;10.10;99.90
2447;DHT22;26430;48.818;9.244;2022-10-01T08:07:07;10.20;99.90
2447;DHT22;26430;48.818;9.244;2022-10-01T08:09:33;10.30;99.90
2447;DHT22;26430;48.818;9.244;2022-10-01T08:11:59;10.20;99.90
2447;DHT22;26430;48.818;9.244;2022-10-01T08:14:25;10.20;99.90
2447;DHT22;26430;48.818;9.244;2022-10-01T08:16:55;10.20;99.90
2447;DHT22;26430;48.818;9.244;2022-10-01T08:19:21;10.20;99.90
2447;DHT22;26430;48.818;9.244;2022-10-01T08:21:47;10.30;99.90
2447;DHT22;26430;48.818;9.244;2022-10-01T08:24:13;10.20;99.90
2447;DHT22;26430;48.818;9.244;2022-10-01T08:26:38;10.30;99.90
2447;DHT22;26430;48.818;9.244;2022-10-01T08:29:04;10.20;99.90
2447;DHT22;26430;48.818;9.244;2022-10-01T08:31:31;10.30;99.90
2447;DHT22;26430;48.818;9.244;2022-10-01T08:33:56;10.30;99.90
2447;DHT22;26430;48.818;9.244;2022-10-01T08:36:22;10.60;99.90
2447;DHT22;26430;48.818;9.244;2022-10-01T08:38:48;10.70;99.90
2447;DHT22;26430;48.818;9.244;2022-10-01T08:41:39;10.90;99.90
2447;DHT22;26430;48.818;9.244;2022-10-01T08:44:15;10.90;99.90
2447;DHT22;26430;48.818;9.244;2022-10-01T08:46:42;10.50;99.90
2447;DHT22;26430;48.818;9.244;2022-10-01T08:49:19;10.60;99.90
2447;DHT22;26430;48.818;9.244;2022-10-01T08:52:02;10.40;99.90
2447;DHT22;26430;48.818;9.244;2022-10-01T08:57:24;10.50;99.90
2447;DHT22;26430;48.818;9.244;2022-10-01T08:59:56;10.60;99.90
2447;DHT22;26430;48.818;9.244;2022-10-01T09:02:28;10.70;99.90
2447;DHT22;26430;48.818;9.244;2022-10-01T09:04:57;10.70;99.90
2447;DHT22;26430;48.818;9.244;2022-10-01T09:15:46;10.90;99.90
2447;DHT22;26430;48.818;9.244;2022-10-01T09:21:22;10.70;99.90
2447;DHT22;26430;48.818;9.244;2022-10-01T09:24:11;10.60;99.90
2447;DHT22;26430;48.818;9.244;2022-10-01T09:26:43;10.60;99.90
2447;DHT22;26430;48.818;9.244;2022-10-01T09:29:15;10.70;99.90
2447;DHT22;26430;48.818;9.244;2022-10-01T09:31:46;10.70;99.90
2447;DHT22;26430;48.818;9.244;2022-10-01T09:34:15;10.60;99.90
2447;DHT22;26430;48.818;9.244;2022-10-01T09:37:06;10.60;99.90
2447;DHT22;26430;48.818;9.244;2022-10-01T09:40:10;10.50;99.90
2447;DHT22;26430;48.818;9.244;2022-10-01T09:42:39;10.50;99.90
2447;DHT22;26430;48.818;9.244;2022-10-01T09:45:05;10.50;99.90
2447;DHT22;26430;48.818;9.244;2022-10-01T09:47:32;10.50;99.90
2447;DHT22;26430;48.818;9.244;2022-10-01T09:49:59;10.50;99.90
2447;DHT22;26430;48.818;9.244;2022-10-01T09:52:33;10.60;99.90
2447;DHT22;26430;48.818;9.244;2022-10-01T09:55:49;10.60;99.90
2447;DHT22;26430;48.818;9.244;2022-10-01T09:58:17;10.60;99.90
2447;DHT22;26430;48.818;9.244;2022-10-01T10:00:45;10.60;99.90
2447;DHT22;26430;48.818;9.244;2022-10-01T10:03:32;10.60;99.90
2447;DHT22;26430;48.818;9.244;2022-10-01T10:05:58;10.70;99.90
2447;DHT22;26430;48.818;9.244;2022-10-01T10:08:28;10.80;99.90
2447;DHT22;26430;48.818;9.244;2022-10-01T10:11:03;11.00;99.90
2447;DHT22;26430;48.818;9.244;2022-10-01T10:13:40;11.10;99.90
2447;DHT22;26430;48.818;9.244;2022-10-01T10:16:27;11.10;99.90
2447;DHT22;26430;48.818;9.244;2022-10-01T10:19:02;11.10;99.90
2447;DHT22;26430;48.818;9.244;2022-10-01T10:21:31;11.10;99.90
2447;DHT22;26430;48.818;9.244;2022-10-01T10:24:01;11.10;99.90
2447;DHT22;26430;48.818;9.244;2022-10-01T10:26:38;11.30;99.90
2447;DHT22;26430;48.818;9.244;2022-10-01T10:29:06;11.20;99.90
2447;DHT22;26430;48.818;9.244;2022-10-01T10:31:45;11.10;99.90
2447;DHT22;26430;48.818;9.244;2022-10-01T10:34:18;11.10;99.90
2447;DHT22;26430;48.818;9.244;2022-10-01T10:36:46;11.20;99.90
2447;DHT22;26430;48.818;9.244;2022-10-01T10:39:24;11.30;99.90
2447;DHT22;26430;48.818;9.244;2022-10-01T10:41:54;11.30;99.90
2447;DHT22;26430;48.818;9.244;2022-10-01T10:44:22;11.30;99.90
2447;DHT22;26430;48.818;9.244;2022-10-01T10:46:51;11.30;99.90
2447;DHT22;26430;48.818;9.244;2022-10-01T10:49:26;11.40;99.90
2447;DHT22;26430;48.818;9.244;2022-10-01T10:51:55;11.50;99.90
2447;DHT22;26430;48.818;9.244;2022-10-01T10:54:32;11.50;99.90
2447;DHT22;26430;48.818;9.244;2022-10-01T10:57:17;11.50;99.90
2447;DHT22;26430;48.818;9.244;2022-10-01T11:02:39;11.60;99.90
2447;DHT22;26430;48.818;9.244;2022-10-01T11:05:18;11.70;99.90
2447;DHT22;26430;48.818;9.244;2022-10-01T11:07:46;11.70;99.90
2447;DHT22;26430;48.818;9.244;2022-10-01T11:13:36;11.90;99.90
2447;DHT22;26430;48.818;9.244;2022-10-01T11:27:24;12.10;99.90
2447;DHT22;26430;48.818;9.244;2022-10-01T11:40:40;12.30;99.90
2447;DHT22;26430;48.818;9.244;2022-10-01T11:43:25;12.30;99.90
2447;DHT22;26430;48.818;9.244;2022-10-01T11:45:56;12.30;99.90
2447;DHT22;26430;48.818;9.244;2022-10-01T11:48:32;12.30;99.90
2447;DHT22;26430;48.818;9.244;2022-10-01T11:51:09;12.40;99.90
2447;DHT22;26430;48.818;9.244;2022-10-01T11:53:48;12.40;99.90
2447;DHT22;26430;48.818;9.244;2022-10-01T11:56:20;12.40;99.90
2447;DHT22;26430;48.818;9.244;2022-10-01T11:59:23;12.40;99.90
2447;DHT22;26430;48.818;9.244;2022-10-01T12:15:52;12.40;99.90
2447;DHT22;26430;48.818;9.244;2022-10-01T12:18:34;12.40;99.90
2447;DHT22;26430;48.818;9.244;2022-10-01T12:21:13;12.50;99.90
2447;DHT22;26430;48.818;9.244;2022-10-01T12:23:47;12.50;99.90
2447;DHT22;26430;48.818;9.244;2022-10-01T12:29:08;12.60;99.90
2447;DHT22;26430;48.818;9.244;2022-10-01T12:31:51;12.70;99.90
2447;DHT22;26430;48.818;9.244;2022-10-01T12:34:46;12.70;99.90
2447;DHT22;26430;48.818;9.244;2022-10-01T12:40:39;12.80;99.90
2447;DHT22;26430;48.818;9.244;2022-10-01T12:46:13;12.90;99.90
2447;DHT22;26430;48.818;9.244;2022-10-01T12:59:58;13.20;99.90
2447;DHT22;26430;48.818;9.244;2022-10-01T13:08:26;13.40;99.90
2447;DHT22;26430;48.818;9.244;2022-10-01T13:13:30;13.50;99.90
2447;DHT22;26430;48.818;9.244;2022-10-01T13:24:49;13.80;99.90
2447;DHT22;26430;48.818;9.244;2022-10-01T13:27:37;13.80;99.90
2447;DHT22;26430;48.818;9.244;2022-10-01T13:30:18;13.90;99.90
2447;DHT22;26430;48.818;9.244;2022-10-01T13:32:56;14.00;99.90
2447;DHT22;26430;48.818;9.244;2022-10-01T13:35:34;14.00;99.90
2447;DHT22;26430;48.818;9.244;2022-10-01T13:38:01;14.20;99.90
2447;DHT22;26430;48.818;9.244;2022-10-01T13:40:37;14.20;99.90
2447;DHT22;26430;48.818;9.244;2022-10-01T13:43:20;14.20;99.90
2447;DHT22;26430;48.818;9.244;2022-10-01T13:45:52;14.40;99.90
2447;DHT22;26430;48.818;9.244;2022-10-01T13:48:24;14.50;99.90
2447;DHT22;26430;48.818;9.244;2022-10-01T13:50:59;14.40;99.90
2447;DHT22;26430;48.818;9.244;2022-10-01T13:53:34;14.40;99.90
2447;DHT22;26430;48.818;9.244;2022-10-01T13:56:01;14.50;99.90
2447;DHT22;26430;48.818;9.244;2022-10-01T13:58:37;14.40;99.90
2447;DHT22;26430;48.818;9.244;2022-10-01T14:01:22;14.40;99.90
2447;DHT22;26430;48.818;9.244;2022-10-01T14:04:03;14.40;99.90
2447;DHT22;26430;48.818;9.244;2022-10-01T14:09:11;14.60;99.90
2447;DHT22;26430;48.818;9.244;2022-10-01T14:11:44;14.60;99.90
2447;DHT22;26430;48.818;9.244;2022-10-01T14:15:32;14.70;99.90
2447;DHT22;26430;48.818;9.244;2022-10-01T14:17:54;14.80;99.90
2447;DHT22;26430;48.818;9.244;2022-10-01T14:20:28;14.90;99.90
2447;DHT22;26430;48.818;9.244;2022-10-01T14:23:12;14.90;99.90
2447;DHT22;26430;48.818;9.244;2022-10-01T14:31:00;14.90;99.90
2447;DHT22;26430;48.818;9.244;2022-10-01T14:36:14;14.90;99.90
2447;DHT22;26430;48.818;9.244;2022-10-01T14:38:40;15.00;99.90
2447;DHT22;26430;48.818;9.244;2022-10-01T14:41:18;15.00;99.90
2447;DHT22;26430;48.818;9.244;2022-10-01T14:43:44;15.00;99.90
2447;DHT22;26430;48.818;9.244;2022-10-01T14:46:13;15.00;99.90
2447;DHT22;26430;48.818;9.244;2022-10-01T14:48:41;15.00;99.90
2447;DHT22;26430;48.818;9.244;2022-10-01T14:51:22;15.00;99.90
2447;DHT22;26430;48.818;9.244;2022-10-01T14:53:49;15.00;99.90
2447;DHT22;26430;48.818;9.244;2022-10-01T14:56:16;15.00;99.90
2447;DHT22;26430;48.818;9.244;2022-10-01T14:59:02;15.00;99.90
2447;DHT22;26430;48.818;9.244;2022-10-01T15:01:30;15.00;99.90
2447;DHT22;26430;48.818;9.244;2022-10-01T15:03:55;14.90;99.90
2447;DHT22;26430;48.818;9.244;2022-10-01T15:06:24;14.90;99.90
2447;DHT22;26430;48.818;9.244;2022-10-01T15:08:53;14.90;99.90
2447;DHT22;26430;48.818;9.244;2022-10-01T15:11:23;14.90;99.90
2447;DHT22;26430;48.818;9.244;2022-10-01T15:13:52;14.80;99.90
2447;DHT22;26430;48.818;9.244;2022-10-01T15:16:24;14.80;99.90
2447;DHT22;26430;48.818;9.244;2022-10-01T15:19:14;14.80;99.90
2447;DHT22;26430;48.818;9.244;2022-10-01T15:26:45;14.80;99.90
2447;DHT22;26430;48.818;9.244;2022-10-01T15:29:13;14.70;99.90
2447;DHT22;26430;48.818;9.244;2022-10-01T15:31:40;14.70;99.90
2447;DHT22;26430;48.818;9.244;2022-10-01T15:34:10;14.70;99.90
2447;DHT22;26430;48.818;9.244;2022-10-01T15:36:37;14.80;99.90
2447;DHT22;26430;48.818;9.244;2022-10-01T15:39:28;14.70;99.90
2447;DHT22;26430;48.818;9.244;2022-10-01T15:41:55;14.70;99.90
2447;DHT22;26430;48.818;9.244;2022-10-01T15:44:41;14.60;99.90
2447;DHT22;26430;48.818;9.244;2022-10-01T15:50:21;14.70;99.90
2447;DHT22;26430;48.818;9.244;2022-10-01T15:53:01;14.70;99.90
2447;DHT22;26430;48.818;9.244;2022-10-01T15:55:50;14.60;99.90
2447;DHT22;26430;48.818;9.244;2022-10-01T16:00:58;14.60;99.90
2447;DHT22;26430;48.818;9.244;2022-10-01T16:03:34;14.60;99.90
2447;DHT22;26430;48.818;9.244;2022-10-01T16:06:04;14.50;99.90
2447;DHT22;26430;48.818;9.244;2022-10-01T16:08:36;14.60;99.90
2447;DHT22;26430;48.818;9.244;2022-10-01T16:11:22;14.60;99.90
2447;DHT22;26430;48.818;9.244;2022-10-01T16:13:50;14.60;99.90
2447;DHT22;26430;48.818;9.244;2022-10-01T16:16:26;14.50;99.90
2447;DHT22;26430;48.818;9.244;2022-10-01T16:18:58;14.50;99.90
2447;DHT22;26430;48.818;9.244;2022-10-01T16:21:24;14.50;99.90
2447;DHT22;26430;48.818;9.244;2022-10-01T16:23:51;14.50;99.90
2447;DHT22;26430;48.818;9.244;2022-10-01T16:28:56;14.50;99.90
2447;DHT22;26430;48.818;9.244;2022-10-01T16:31:25;14.50;99.90
2447;DHT22;26430;48.818;9.244;2022-10-01T16:33:51;14.50;99.90
2447;DHT22;26430;48.818;9.244;2022-10-01T16:36:18;14.40;99.90
2447;DHT22;26430;48.818;9.244;2022-10-01T16:38:46;14.40;99.90
2447;DHT22;26430;48.818;9.244;2022-10-01T16:41:18;14.40;99.90
2447;DHT22;26430;48.818;9.244;2022-10-01T16:43:45;14.40;99.90
2447;DHT22;26430;48.818;9.244;2022-10-01T16:46:12;14.30;99.90
2447;DHT22;26430;48.818;9.244;2022-10-01T16:48:37;14.40;99.90
2447;DHT22;26430;48.818;9.244;2022-10-01T16:51:03;14.30;99.90
2447;DHT22;26430;48.818;9.244;2022-10-01T16:53:28;14.30;99.90
2447;DHT22;26430;48.818;9.244;2022-10-01T16:55:54;14.30;99.90
2447;DHT22;26430;48.818;9.244;2022-10-01T16:58:21;14.40;99.90
2447;DHT22;26430;48.818;9.244;2022-10-01T17:00:47;14.40;99.90
2447;DHT22;26430;48.818;9.244;2022-10-01T17:03:18;14.40;99.90
2447;DHT22;26430;48.818;9.244;2022-10-01T17:05:44;14.40;99.90
2447;DHT22;26430;48.818;9.244;2022-10-01T17:08:10;14.40;99.90
2447;DHT22;26430;48.818;9.244;2022-10-01T17:10:45;14.30;99.90
2447;DHT22;26430;48.818;9.244;2022-10-01T17:13:13;14.40;99.90
2447;DHT22;26430;48.818;9.244;2022-10-01T17:15:40;14.30;99.90
2447;DHT22;26430;48.818;9.244;2022-10-01T17:18:06;14.30;99.90
2447;DHT22;26430;48.818;9.244;2022-10-01T17:20:34;14.20;99.90
2447;DHT22;26430;48.818;9.244;2022-10-01T17:23:00;14.10;99.90
2447;DHT22;26430;48.818;9.244;2022-10-01T17:25:31;14.00;99.90
2447;DHT22;26430;48.818;9.244;2022-10-01T17:27:59;14.00;99.90
2447;DHT22;26430;48.818;9.244;2022-10-01T17:30:27;14.00;99.90
2447;DHT22;26430;48.818;9.244;2022-10-01T17:32:54;14.10;99.90
2447;DHT22;26430;48.818;9.244;2022-10-01T17:35:19;14.10;99.90
2447;DHT22;26430;48.818;9.244;2022-10-01T17:37:45;14.20;99.90
2447;DHT22;26430;48.818;9.244;2022-10-01T17:40:11;14.20;99.90
2447;DHT22;26430;48.818;9.244;2022-10-01T17:42:38;14.20;99.90
2447;DHT22;26430;48.818;9.244;2022-10-01T17:45:05;14.20;99.90
2447;DHT22;26430;48.818;9.244;2022-10-01T17:47:31;14.20;99.90
2447;DHT22;26430;48.818;9.244;2022-10-01T17:49:58;14.10;99.90
2447;DHT22;26430;48.818;9.244;2022-10-01T17:52:23;14.10;99.90
2447;DHT22;26430;48.818;9.244;2022-10-01T17:54:49;14.10;99.90
2447;DHT22;26430;48.818;9.244;2022-10-01T17:57:15;14.10;99.90
2447;DHT22;26430;48.818;9.244;2022-10-01T17:59:41;14.00;99.90
2447;DHT22;26430;48.818;9.244;2022-10-01T18:02:10;14.00;99.90
2447;DHT22;26430;48.818;9.244;2022-10-01T18:04:38;13.80;99.90
2447;DHT22;26430;48.818;9.244;2022-10-01T18:07:12;13.70;99.90
2447;DHT22;26430;48.818;9.244;2022-10-01T18:09:38;13.70;99.90
2447;DHT22;26430;48.818;9.244;2022-10-01T18:12:09;13.70;99.90
2447;DHT22;26430;48.818;9.244;2022-10-01T18:14:36;13.70;99.90
2447;DHT22;26430;48.818;9.244;2022-10-01T18:17:02;13.60;99.90
2447;DHT22;26430;48.818;9.244;2022-10-01T18:19:28;13.70;99.90
2447;DHT22;26430;48.818;9.244;2022-10-01T18:21:56;13.70;99.90
2447;DHT22;26430;48.818;9.244;2022-10-01T18:24:22;13.70;99.90
2447;DHT22;26430;48.818;9.244;2022-10-01T18:26:48;13.80;99.90
2447;DHT22;26430;48.818;9.244;2022-10-01T18:29:20;13.80;99.90
2447;DHT22;26430;48.818;9.244;2022-10-01T18:32:35;13.70;99.90
2447;DHT22;26430;48.818;9.244;2022-10-01T18:34:38;13.80;99.90